Time;durP1;ratioP1;P1;durP2;ratioP2;P2;SDS_P1;SDS_P2;PMS_P1;PMS_P2;Temp;Humidity;BMP_temperature;BMP_pressure;BME280_temperature;BME280_humidity;BME280_pressure;Samples;Min_cycle;Max_cycle;Signal;HPM_P1;HPM_P2
2022/11/16 00:02:33;;;;;;;37.80;18.13;;;;;;;;;;6633540;28;20210;-91
2022/11/16 00:05:43;;;;;;;31.97;16.10;;;;;;;;;;6633751;28;20175;-91
2022/11/16 00:12:25;;;;;;;49.20;21.60;;;;;;;;;;6651838;28;20166;-91
2022/11/16 00:15:36;;;;;;;40.03;19.87;;;;;;;;;;6633493;28;20560;-91
2022/11/16 00:18:47;;;;;;;29.83;14.97;;;;;;;;;;6651636;28;20171;-92
2022/11/16 00:21:57;;;;;;;39.80;16.87;;;;;;;;;;6651570;28;20222;-91
2022/11/16 00:25:08;;;;;;;27.50;13.37;;;;;;;;;;6651854;28;20170;-91
2022/11/16 00:28:18;;;;;;;28.73;15.57;;;;;;;;;;6651779;28;20179;-91
2022/11/16 00:31:28;;;;;;;31.37;16.17;;;;;;;;;;6651288;28;20222;-91
2022/11/16 00:34:39;;;;;;;29.17;15.77;;;;;;;;;;6632869;28;20179;-91
2022/11/16 00:37:50;;;;;;;29.93;15.87;;;;;;;;;;6651072;28;20189;-90
2022/11/16 00:41:00;;;;;;;31.27;16.80;;;;;;;;;;6633143;28;20244;-91
2022/11/16 00:44:11;;;;;;;32.00;16.77;;;;;;;;;;6650497;28;20202;-91
2022/11/16 00:47:21;;;;;;;21.77;11.73;;;;;;;;;;6633300;28;20171;-91
2022/11/16 00:50:31;;;;;;;25.40;13.60;;;;;;;;;;6650221;28;20171;-92
2022/11/16 00:53:42;;;;;;;23.60;13.17;;;;;;;;;;6616543;28;20183;-91
2022/11/16 00:56:52;;;;;;;29.63;14.77;;;;;;;;;;6631946;28;20193;-91
2022/11/16 01:00:03;;;;;;;33.60;17.70;;;;;;;;;;6632312;28;20182;-91
2022/11/16 01:03:13;;;;;;;42.47;20.50;;;;;;;;;;6650067;28;20558;-91
2022/11/16 01:06:24;;;;;;;37.80;16.73;;;;;;;;;;6632333;28;20186;-91
2022/11/16 01:09:34;;;;;;;27.17;14.13;;;;;;;;;;6632730;28;20175;-91
2022/11/16 01:12:45;;;;;;;32.23;15.90;;;;;;;;;;6631924;28;20175;-91
2022/11/16 01:15:55;;;;;;;25.93;14.27;;;;;;;;;;6632196;28;20575;-92
2022/11/16 01:19:06;;;;;;;33.00;15.03;;;;;;;;;;6649286;28;20214;-91
2022/11/16 01:22:16;;;;;;;42.43;16.97;;;;;;;;;;6620057;28;20223;-91
2022/11/16 01:25:27;;;;;;;27.67;14.67;;;;;;;;;;6605149;28;20270;-91
2022/11/16 01:28:38;;;;;;;28.83;14.07;;;;;;;;;;6605867;28;20171;-91
2022/11/16 01:31:49;;;;;;;29.57;12.97;;;;;;;;;;6605189;28;20261;-91
2022/11/16 01:34:59;;;;;;;26.73;13.20;;;;;;;;;;6605564;28;20559;-91
2022/11/16 01:38:11;;;;;;;26.60;12.30;;;;;;;;;;6605850;28;20180;-91
2022/11/16 01:41:22;;;;;;;23.97;12.27;;;;;;;;;;6589010;28;20190;-91
2022/11/16 01:44:33;;;;;;;29.80;14.47;;;;;;;;;;6623254;28;20179;-91
2022/11/16 01:47:43;;;;;;;38.60;15.80;;;;;;;;;;6605271;28;20180;-91
2022/11/16 01:50:54;;;;;;;28.30;14.83;;;;;;;;;;6604899;28;20237;-91
2022/11/16 01:54:07;;;;;;;20.60;10.30;;;;;;;;;;6604492;28;20202;-91
2022/11/16 01:57:20;;;;;;;27.57;14.00;;;;;;;;;;6605442;28;20184;-91
2022/11/16 02:00:30;;;;;;;19.33;10.60;;;;;;;;;;6604774;28;20271;-92
2022/11/16 02:03:41;;;;;;;22.50;11.93;;;;;;;;;;6622646;28;20203;-92
2022/11/16 02:06:58;;;;;;;23.03;11.53;;;;;;;;;;6622761;28;20644;-91
2022/11/16 02:10:19;;;;;;;23.17;12.57;;;;;;;;;;6604346;28;20172;-91
2022/11/16 02:13:38;;;;;;;33.40;15.67;;;;;;;;;;6605172;28;20209;-91
2022/11/16 02:16:50;;;;;;;36.57;18.90;;;;;;;;;;6604979;28;20206;-91
2022/11/16 02:20:06;;;;;;;42.40;19.97;;;;;;;;;;6623260;28;20171;-91
2022/11/16 02:23:22;;;;;;;42.77;18.67;;;;;;;;;;6604470;28;20269;-91
2022/11/16 02:26:52;;;;;;;37.67;17.63;;;;;;;;;;6604568;28;20262;-91
2022/11/16 02:30:05;;;;;;;46.70;21.80;;;;;;;;;;6603919;28;20180;-91
2022/11/16 02:33:17;;;;;;;26.93;14.20;;;;;;;;;;6604204;28;20747;-91
2022/11/16 02:36:27;;;;;;;27.77;14.10;;;;;;;;;;6604586;28;20186;-91
2022/11/16 02:39:39;;;;;;;26.63;13.60;;;;;;;;;;6604122;28;20179;-91
2022/11/16 02:42:52;;;;;;;28.63;14.53;;;;;;;;;;6603989;28;20206;-91
2022/11/16 02:46:05;;;;;;;27.93;13.97;;;;;;;;;;6604727;28;20198;-91
2022/11/16 02:49:17;;;;;;;28.20;14.53;;;;;;;;;;6622296;28;20182;-92
2022/11/16 02:52:28;;;;;;;26.37;13.03;;;;;;;;;;6622150;28;20172;-91
2022/11/16 02:55:39;;;;;;;33.57;17.47;;;;;;;;;;6622441;28;20179;-92
2022/11/16 02:58:50;;;;;;;29.73;13.47;;;;;;;;;;6622019;28;20211;-91
2022/11/16 03:02:09;;;;;;;27.97;14.00;;;;;;;;;;6604357;28;20204;-91
2022/11/16 03:05:32;;;;;;;25.23;13.57;;;;;;;;;;6604070;28;20245;-91
2022/11/16 03:08:46;;;;;;;22.70;12.43;;;;;;;;;;6622769;28;20218;-91
2022/11/16 03:11:58;;;;;;;29.73;14.63;;;;;;;;;;6622290;28;20211;-91
2022/11/16 03:15:10;;;;;;;22.33;11.90;;;;;;;;;;6605095;28;20184;-91
2022/11/16 03:18:22;;;;;;;20.83;11.93;;;;;;;;;;6604338;28;20524;-92
2022/11/16 03:21:41;;;;;;;28.17;13.57;;;;;;;;;;6606461;28;20575;-91
2022/11/16 03:24:52;;;;;;;26.83;13.43;;;;;;;;;;6608998;28;20200;-92
2022/11/16 03:28:02;;;;;;;20.27;11.87;;;;;;;;;;6608832;28;20528;-91
2022/11/16 03:31:15;;;;;;;25.33;12.30;;;;;;;;;;6608498;28;20228;-91
2022/11/16 03:34:28;;;;;;;23.13;11.50;;;;;;;;;;6608687;28;20253;-91
2022/11/16 03:37:41;;;;;;;25.90;14.37;;;;;;;;;;6608945;28;20215;-91
2022/11/16 03:40:52;;;;;;;25.00;13.80;;;;;;;;;;6626928;28;20176;-91
2022/11/16 03:44:03;;;;;;;18.20;11.57;;;;;;;;;;6608198;28;20237;-92
2022/11/16 03:47:14;;;;;;;31.00;17.00;;;;;;;;;;6607988;28;20241;-91
2022/11/16 03:50:24;;;;;;;24.37;14.37;;;;;;;;;;6625771;28;20203;-91
2022/11/16 03:53:35;;;;;;;17.60;9.80;;;;;;;;;;6608114;28;20179;-91
2022/11/16 03:56:45;;;;;;;19.97;11.43;;;;;;;;;;6607954;28;20186;-91
2022/11/16 03:59:55;;;;;;;21.53;12.20;;;;;;;;;;6607395;28;20175;-92
2022/11/16 04:03:06;;;;;;;15.30;9.60;;;;;;;;;;6625717;28;20203;-91
2022/11/16 04:38:09;;;;;;;21.10;11.57;;;;;;;;;;6556911;28;20190;-91
2022/11/16 04:48:17;;;;;;;13.93;7.40;;;;;;;;;;6625160;28;20525;-91
2022/11/16 04:51:28;;;;;;;17.30;8.90;;;;;;;;;;6607002;28;20175;-92
2022/11/16 04:54:38;;;;;;;16.70;9.03;;;;;;;;;;6606418;28;20633;-91
2022/11/16 04:57:48;;;;;;;15.77;9.07;;;;;;;;;;6606376;28;20610;-91
2022/11/16 05:00:59;;;;;;;21.90;12.10;;;;;;;;;;6606622;28;20187;-91
2022/11/16 05:04:09;;;;;;;17.10;10.57;;;;;;;;;;6589730;28;20224;-92
2022/11/16 05:07:21;;;;;;;17.47;9.60;;;;;;;;;;6590465;28;20199;-91
2022/11/16 05:10:31;;;;;;;19.27;11.07;;;;;;;;;;6624101;28;20517;-91
2022/11/16 05:13:42;;;;;;;18.30;10.33;;;;;;;;;;6605766;28;20191;-92
2022/11/16 05:16:52;;;;;;;20.47;10.60;;;;;;;;;;6623773;28;20180;-92
2022/11/16 05:27:07;;;;;;;23.57;11.37;;;;;;;;;;6624513;28;20183;-91
2022/11/16 05:30:19;;;;;;;20.70;11.23;;;;;;;;;;6621598;28;20195;-91
2022/11/16 05:33:29;;;;;;;19.83;10.67;;;;;;;;;;6624465;28;20251;-91
2022/11/16 05:36:40;;;;;;;20.83;11.00;;;;;;;;;;6623711;28;20182;-91
2022/11/16 05:39:53;;;;;;;17.73;10.40;;;;;;;;;;6605205;28;20180;-91
2022/11/16 05:43:05;;;;;;;16.67;8.33;;;;;;;;;;6604884;28;20215;-92
2022/11/16 05:46:17;;;;;;;16.60;10.33;;;;;;;;;;6623746;28;20263;-91
2022/11/16 05:49:27;;;;;;;17.73;9.57;;;;;;;;;;6605304;28;20626;-91
2022/11/16 05:52:37;;;;;;;32.30;17.73;;;;;;;;;;6604467;28;20211;-92
2022/11/16 05:55:49;;;;;;;20.07;10.50;;;;;;;;;;6604893;28;20317;-91
2022/11/16 05:58:59;;;;;;;18.60;10.63;;;;;;;;;;6633872;28;20266;-91
2022/11/16 06:02:10;;;;;;;18.30;10.90;;;;;;;;;;6648399;28;20234;-91
2022/11/16 06:05:20;;;;;;;16.60;9.93;;;;;;;;;;6631871;28;20540;-92
2022/11/16 06:08:31;;;;;;;20.37;12.57;;;;;;;;;;6630745;28;20285;-91
2022/11/16 06:11:41;;;;;;;16.17;9.60;;;;;;;;;;6631644;28;20171;-91
2022/11/16 06:14:51;;;;;;;16.63;8.00;;;;;;;;;;6630762;28;20183;-92
2022/11/16 06:18:02;;;;;;;18.20;11.23;;;;;;;;;;6648240;28;20186;-92
2022/11/16 06:21:13;;;;;;;19.73;10.80;;;;;;;;;;6630510;28;20178;-91
2022/11/16 06:24:24;;;;;;;17.47;11.13;;;;;;;;;;6630262;28;20327;-91
2022/11/16 06:27:34;;;;;;;14.47;9.80;;;;;;;;;;6613997;28;20179;-91
2022/11/16 06:30:46;;;;;;;13.30;8.57;;;;;;;;;;6630398;28;20202;-91
2022/11/16 06:33:56;;;;;;;15.23;8.57;;;;;;;;;;6630895;28;20179;-91
2022/11/16 06:37:06;;;;;;;19.67;11.73;;;;;;;;;;6630685;28;20634;-91
2022/11/16 06:40:17;;;;;;;17.57;11.17;;;;;;;;;;6630357;28;20179;-92
2022/11/16 06:43:27;;;;;;;19.80;10.67;;;;;;;;;;6647763;28;20230;-92
2022/11/16 06:46:37;;;;;;;12.97;9.43;;;;;;;;;;6630477;28;20209;-91
2022/11/16 06:49:48;;;;;;;14.53;10.20;;;;;;;;;;6630105;28;20182;-91
2022/11/16 06:53:01;;;;;;;15.90;10.47;;;;;;;;;;6630138;28;20182;-91
2022/11/16 06:56:13;;;;;;;16.10;9.43;;;;;;;;;;6634497;28;20648;-92
2022/11/16 06:59:23;;;;;;;19.93;10.80;;;;;;;;;;6636052;28;20175;-91
2022/11/16 07:02:37;;;;;;;11.87;7.50;;;;;;;;;;6653578;28;20210;-91
2022/11/16 07:05:48;;;;;;;13.67;8.40;;;;;;;;;;6635661;28;20608;-92
2022/11/16 07:08:58;;;;;;;16.13;9.47;;;;;;;;;;6635255;28;20303;-92
2022/11/16 07:12:09;;;;;;;14.23;8.63;;;;;;;;;;6635392;28;20193;-92
2022/11/16 07:15:20;;;;;;;13.33;8.53;;;;;;;;;;6634946;28;20627;-92
2022/11/16 07:18:34;;;;;;;16.97;9.73;;;;;;;;;;6635316;28;20179;-92
2022/11/16 07:21:44;;;;;;;15.17;9.80;;;;;;;;;;6635599;28;20171;-91
2022/11/16 07:24:55;;;;;;;14.67;8.47;;;;;;;;;;6634424;28;20195;-92
2022/11/16 07:28:05;;;;;;;16.80;9.73;;;;;;;;;;6634706;28;20198;-92
2022/11/16 07:31:17;;;;;;;12.90;8.90;;;;;;;;;;6652527;28;20231;-92
2022/11/16 07:34:27;;;;;;;12.97;9.30;;;;;;;;;;6635218;28;20578;-92
2022/11/16 07:37:37;;;;;;;15.13;9.53;;;;;;;;;;6634740;28;20182;-92
2022/11/16 07:40:48;;;;;;;16.47;10.27;;;;;;;;;;6634311;28;20266;-92
2022/11/16 07:43:59;;;;;;;15.63;10.80;;;;;;;;;;6634264;28;20774;-92
2022/11/16 07:47:10;;;;;;;15.37;11.37;;;;;;;;;;6618052;28;20187;-92
2022/11/16 07:50:20;;;;;;;16.13;9.83;;;;;;;;;;6634174;28;20241;-92
2022/11/16 07:53:31;;;;;;;14.87;10.40;;;;;;;;;;6633713;28;20312;-92
2022/11/16 07:56:41;;;;;;;14.90;10.30;;;;;;;;;;6651389;28;20544;-91
2022/11/16 07:59:51;;;;;;;17.57;10.93;;;;;;;;;;6634932;28;20205;-92
2022/11/16 08:03:02;;;;;;;13.70;9.00;;;;;;;;;;6633878;28;20211;-92
2022/11/16 08:06:21;;;;;;;16.10;11.03;;;;;;;;;;6633444;28;20183;-92
2022/11/16 08:09:33;;;;;;;12.60;9.17;;;;;;;;;;6634247;28;20521;-92
2022/11/16 08:12:43;;;;;;;12.43;8.90;;;;;;;;;;6622954;28;20188;-92
2022/11/16 08:15:54;;;;;;;11.80;8.20;;;;;;;;;;6618729;28;20183;-93
2022/11/16 08:19:04;;;;;;;12.33;8.23;;;;;;;;;;6618016;28;20230;-91
2022/11/16 08:22:14;;;;;;;10.70;7.30;;;;;;;;;;6606928;28;20670;-92
2022/11/16 08:25:24;;;;;;;11.00;8.27;;;;;;;;;;6607145;28;20180;-92
2022/11/16 08:28:35;;;;;;;10.20;6.80;;;;;;;;;;6624938;28;20195;-92
2022/11/16 08:31:46;;;;;;;11.87;7.20;;;;;;;;;;6607171;28;20227;-92
2022/11/16 08:34:56;;;;;;;20.63;12.30;;;;;;;;;;6607131;28;20179;-91
2022/11/16 08:38:06;;;;;;;10.73;7.80;;;;;;;;;;6606808;28;20268;-92
2022/11/16 08:41:17;;;;;;;8.63;6.70;;;;;;;;;;6606727;28;20183;-92
2022/11/16 08:44:27;;;;;;;9.70;6.80;;;;;;;;;;6606259;28;20591;-92
2022/11/16 08:47:39;;;;;;;9.07;6.90;;;;;;;;;;6606586;28;20218;-91
2022/11/16 08:50:49;;;;;;;8.07;6.23;;;;;;;;;;6629672;28;20560;-92
2022/11/16 08:54:02;;;;;;;9.23;6.80;;;;;;;;;;6623329;28;20256;-92
2022/11/16 08:57:12;;;;;;;9.27;5.90;;;;;;;;;;6650973;28;20250;-91
2022/11/16 09:00:23;;;;;;;13.90;9.27;;;;;;;;;;6618413;28;20198;-92
2022/11/16 09:03:34;;;;;;;10.97;7.87;;;;;;;;;;6619389;28;20592;-91
2022/11/16 09:06:46;;;;;;;10.87;6.87;;;;;;;;;;6637074;28;20175;-92
2022/11/16 09:09:56;;;;;;;6.57;5.40;;;;;;;;;;6602128;28;20583;-91
2022/11/16 09:13:07;;;;;;;6.77;5.23;;;;;;;;;;6601311;28;20233;-92
2022/11/16 09:16:19;;;;;;;7.77;6.57;;;;;;;;;;6635345;28;20184;-92
2022/11/16 09:19:29;;;;;;;6.40;4.80;;;;;;;;;;6610873;28;20179;-91
2022/11/16 09:22:41;;;;;;;5.73;5.17;;;;;;;;;;6613309;28;20249;-92
2022/11/16 09:25:52;;;;;;;7.33;4.57;;;;;;;;;;6608732;28;20180;-92
2022/11/16 09:29:03;;;;;;;4.30;3.63;;;;;;;;;;6609665;28;20237;-92
2022/11/16 09:32:13;;;;;;;5.83;5.20;;;;;;;;;;6605327;28;20277;-92
2022/11/16 09:35:23;;;;;;;7.20;5.33;;;;;;;;;;6605199;28;20514;-92
2022/11/16 09:38:38;;;;;;;5.60;5.00;;;;;;;;;;6616674;28;20233;-92
2022/11/16 09:42:01;;;;;;;5.77;3.70;;;;;;;;;;6634224;28;20263;-92
2022/11/16 09:45:32;;;;;;;4.90;4.20;;;;;;;;;;6617021;28;20176;-92
2022/11/16 09:48:42;;;;;;;8.80;5.10;;;;;;;;;;6590929;28;20198;-93
2022/11/16 09:51:54;;;;;;;4.30;3.53;;;;;;;;;;6614953;28;20176;-92
2022/11/16 09:55:23;;;;;;;4.20;3.80;;;;;;;;;;6616682;28;20646;-93
2022/11/16 09:58:42;;;;;;;4.13;3.60;;;;;;;;;;6623386;28;20172;-94
2022/11/16 10:02:15;;;;;;;5.10;3.93;;;;;;;;;;6615897;28;20260;-94
2022/11/16 10:05:31;;;;;;;7.90;5.93;;;;;;;;;;6616413;28;20187;-93
2022/11/16 10:08:46;;;;;;;7.40;5.90;;;;;;;;;;6604920;28;20187;-93
2022/11/16 10:12:09;;;;;;;7.80;6.00;;;;;;;;;;6604591;28;20187;-92
2022/11/16 10:15:23;;;;;;;5.97;5.03;;;;;;;;;;6622403;28;20183;-92
2022/11/16 10:18:34;;;;;;;4.77;4.27;;;;;;;;;;6625399;28;20269;-93
2022/11/16 10:22:02;;;;;;;5.83;5.23;;;;;;;;;;6629839;28;20175;-93
2022/11/16 10:25:19;;;;;;;4.73;4.13;;;;;;;;;;6604667;28;20545;-93
2022/11/16 10:28:51;;;;;;;7.53;5.27;;;;;;;;;;6604781;28;20180;-94
2022/11/16 10:32:07;;;;;;;6.20;5.10;;;;;;;;;;6604684;28;20231;-93
2022/11/16 10:35:23;;;;;;;8.87;6.03;;;;;;;;;;6588579;28;20275;-93
2022/11/16 10:38:35;;;;;;;8.70;5.13;;;;;;;;;;6604292;28;20176;-93
2022/11/16 10:41:47;;;;;;;4.70;4.13;;;;;;;;;;6604764;28;20171;-93
2022/11/16 10:45:15;;;;;;;5.50;4.63;;;;;;;;;;6604485;28;20241;-93
2022/11/16 10:48:44;;;;;;;4.10;3.70;;;;;;;;;;6601330;28;20179;-93
2022/11/16 10:51:54;;;;;;;5.53;4.40;;;;;;;;;;6604460;28;20175;-94
2022/11/16 10:55:05;;;;;;;5.43;4.80;;;;;;;;;;6609445;28;20682;-93
2022/11/16 10:58:15;;;;;;;7.00;5.17;;;;;;;;;;6610713;28;20590;-93
2022/11/16 11:01:36;;;;;;;4.00;3.60;;;;;;;;;;6637795;28;20180;-93
2022/11/16 11:05:06;;;;;;;4.90;4.33;;;;;;;;;;6615175;28;20271;-93
2022/11/16 11:08:29;;;;;;;3.90;3.50;;;;;;;;;;6624505;28;20183;-93
2022/11/16 11:15:12;;;;;;;7.50;5.33;;;;;;;;;;6628267;28;20214;-92
2022/11/16 11:18:22;;;;;;;4.57;3.30;;;;;;;;;;6620577;28;20176;-94
2022/11/16 11:21:32;;;;;;;3.73;3.10;;;;;;;;;;6620636;28;20548;-93
2022/11/16 11:24:47;;;;;;;4.70;3.50;;;;;;;;;;6603900;28;20575;-92
2022/11/16 11:28:06;;;;;;;4.67;4.07;;;;;;;;;;6620630;28;20179;-93
2022/11/16 11:31:27;;;;;;;5.10;3.93;;;;;;;;;;6620773;28;20250;-93
2022/11/16 11:34:42;;;;;;;3.50;3.20;;;;;;;;;;6601372;28;20191;-93
2022/11/16 11:37:54;;;;;;;5.50;4.43;;;;;;;;;;6633244;28;20179;-93
2022/11/16 11:41:06;;;;;;;6.10;4.83;;;;;;;;;;6624560;28;20275;-94
2022/11/16 11:44:17;;;;;;;5.77;4.70;;;;;;;;;;6635736;28;20252;-94
2022/11/16 11:47:52;;;;;;;6.07;5.00;;;;;;;;;;6634723;28;20178;-95
2022/11/16 11:51:21;;;;;;;7.00;5.90;;;;;;;;;;6632342;28;20175;-94
2022/11/16 11:54:33;;;;;;;8.33;5.83;;;;;;;;;;6622589;28;20179;-94
2022/11/16 11:57:45;;;;;;;5.10;4.60;;;;;;;;;;6619507;28;20172;-95
2022/11/16 12:01:06;;;;;;;5.97;4.87;;;;;;;;;;6620196;28;20167;-94
2022/11/16 12:04:35;;;;;;;5.87;4.90;;;;;;;;;;6624063;28;20563;-95
2022/11/16 12:08:04;;;;;;;7.40;5.70;;;;;;;;;;6634664;28;20225;-95
2022/11/16 12:11:34;;;;;;;8.70;6.20;;;;;;;;;;6652845;28;20228;-94
2022/11/16 12:15:03;;;;;;;6.10;4.47;;;;;;;;;;6652247;28;20186;-94
2022/11/16 12:18:16;;;;;;;4.60;4.03;;;;;;;;;;6651005;28;20186;-94
2022/11/16 12:21:36;;;;;;;4.73;4.00;;;;;;;;;;6635241;28;20171;-95
2022/11/16 12:24:49;;;;;;;10.50;6.60;;;;;;;;;;6587269;23;20326;-95
2022/11/16 12:28:02;;;;;;;6.00;5.07;;;;;;;;;;6589593;28;20192;-94
2022/11/16 12:31:13;;;;;;;7.50;5.43;;;;;;;;;;6588981;28;20173;-95
2022/11/16 12:34:38;;;;;;;5.87;5.27;;;;;;;;;;6588887;28;20192;-95
2022/11/16 12:38:03;;;;;;;8.00;5.17;;;;;;;;;;6572209;28;20647;-94
2022/11/16 12:41:22;;;;;;;5.90;4.50;;;;;;;;;;6572650;28;20575;-94
2022/11/16 12:44:48;;;;;;;5.00;4.00;;;;;;;;;;6575551;28;20268;-93
2022/11/16 12:48:01;;;;;;;5.37;4.67;;;;;;;;;;6563512;28;20182;-93
2022/11/16 12:51:21;;;;;;;5.97;5.30;;;;;;;;;;6547111;28;20264;-93
2022/11/16 12:54:38;;;;;;;6.27;5.30;;;;;;;;;;6561911;28;20182;-93
2022/11/16 12:57:48;;;;;;;6.30;4.80;;;;;;;;;;6562621;28;20244;-93
2022/11/16 13:01:05;;;;;;;8.87;7.30;;;;;;;;;;6562014;28;20182;-94
2022/11/16 13:04:21;;;;;;;6.47;5.63;;;;;;;;;;6545748;28;20241;-93
2022/11/16 13:07:42;;;;;;;5.20;4.70;;;;;;;;;;6562358;28;20264;-93
2022/11/16 13:10:55;;;;;;;6.03;5.37;;;;;;;;;;6572535;28;20184;-94
2022/11/16 13:14:09;;;;;;;4.53;4.03;;;;;;;;;;6570853;28;20544;-92
2022/11/16 13:17:22;;;;;;;4.47;4.07;;;;;;;;;;6570526;28;20177;-94
2022/11/16 13:20:54;;;;;;;5.83;4.47;;;;;;;;;;6571419;28;20558;-95
2022/11/16 13:24:04;;;;;;;6.23;5.23;;;;;;;;;;6570987;28;20304;-95
2022/11/16 13:27:29;;;;;;;5.50;4.07;;;;;;;;;;6588023;28;20236;-94
2022/11/16 13:30:39;;;;;;;3.33;3.00;;;;;;;;;;6567521;28;20223;-94
2022/11/16 13:33:55;;;;;;;4.97;4.50;;;;;;;;;;6587616;28;20181;-95
2022/11/16 13:37:24;;;;;;;5.27;4.37;;;;;;;;;;6570891;28;20174;-94
2022/11/16 13:40:34;;;;;;;6.40;4.53;;;;;;;;;;6587423;28;20231;-94
2022/11/16 13:43:48;;;;;;;4.10;3.67;;;;;;;;;;6570029;28;20209;-94
2022/11/16 13:47:03;;;;;;;5.20;4.70;;;;;;;;;;6570084;28;20177;-94
2022/11/16 13:50:18;;;;;;;5.17;4.67;;;;;;;;;;6547237;28;20640;-94
2022/11/16 13:53:44;;;;;;;4.90;4.40;;;;;;;;;;6544516;28;20684;-92
2022/11/16 13:56:55;;;;;;;5.33;4.00;;;;;;;;;;6543784;28;20192;-94
2022/11/16 14:00:09;;;;;;;6.67;5.73;;;;;;;;;;6545901;28;20519;-94
2022/11/16 14:03:20;;;;;;;4.40;4.00;;;;;;;;;;6543995;28;20200;-94
2022/11/16 14:06:30;;;;;;;6.57;5.07;;;;;;;;;;6543766;28;20272;-94
2022/11/16 14:09:47;;;;;;;5.37;4.57;;;;;;;;;;6544493;28;20186;-94
2022/11/16 14:13:17;;;;;;;7.97;7.13;;;;;;;;;;6543868;28;20216;-93
2022/11/16 14:16:28;;;;;;;13.93;11.87;;;;;;;;;;6530511;28;20209;-92
2022/11/16 14:19:47;;;;;;;23.90;20.97;;;;;;;;;;6544605;28;20178;-93
2022/11/16 14:23:10;;;;;;;20.37;15.07;;;;;;;;;;6549333;28;20263;-93
2022/11/16 14:26:38;;;;;;;12.87;8.90;;;;;;;;;;6552756;28;20184;-93
2022/11/16 14:30:01;;;;;;;33.03;15.67;;;;;;;;;;6570394;28;20184;-93
2022/11/16 14:33:13;;;;;;;23.70;11.43;;;;;;;;;;6569304;28;20204;-92
2022/11/16 14:36:38;;;;;;;13.33;7.50;;;;;;;;;;6570746;28;20519;-92
2022/11/16 14:39:56;;;;;;;15.03;8.80;;;;;;;;;;6550265;28;20309;-92
2022/11/16 14:43:14;;;;;;;22.47;10.90;;;;;;;;;;6552436;28;20231;-92
2022/11/16 14:46:27;;;;;;;12.47;8.43;;;;;;;;;;6553663;28;20181;-92
2022/11/16 14:49:45;;;;;;;15.53;9.10;;;;;;;;;;6570210;28;20180;-91
2022/11/16 14:52:58;;;;;;;10.53;6.40;;;;;;;;;;6570246;28;20173;-91
2022/11/16 14:56:10;;;;;;;5.57;4.57;;;;;;;;;;6552437;28;20188;-91
2022/11/16 14:59:21;;;;;;;6.80;5.43;;;;;;;;;;6569632;28;20184;-90
2022/11/16 15:02:32;;;;;;;6.10;4.93;;;;;;;;;;6566537;28;20240;-90
2022/11/16 15:05:43;;;;;;;7.07;5.13;;;;;;;;;;6568732;28;20179;-90
2022/11/16 15:08:56;;;;;;;7.93;5.97;;;;;;;;;;6568093;28;20224;-91
2022/11/16 15:15:44;;;;;;;6.97;4.87;;;;;;;;;;6568876;28;20188;-90
2022/11/16 15:18:56;;;;;;;11.27;7.20;;;;;;;;;;6556381;28;20177;-90
2022/11/16 15:22:12;;;;;;;8.13;6.13;;;;;;;;;;6573624;28;20220;-89
2022/11/16 15:25:22;;;;;;;6.40;4.40;;;;;;;;;;6573361;28;20347;-89
2022/11/16 15:28:33;;;;;;;7.70;5.70;;;;;;;;;;6573661;28;20663;-89
2022/11/16 15:31:43;;;;;;;7.50;5.40;;;;;;;;;;6556090;28;20227;-88
2022/11/16 15:34:53;;;;;;;10.60;7.13;;;;;;;;;;6556230;28;20179;-89
2022/11/16 15:38:17;;;;;;;12.43;8.77;;;;;;;;;;6555845;28;20204;-90
2022/11/16 15:41:28;;;;;;;12.67;7.43;;;;;;;;;;6572604;28;20239;-87
2022/11/16 15:44:38;;;;;;;10.80;6.27;;;;;;;;;;6574304;28;20532;-92
2022/11/16 15:47:52;;;;;;;8.30;5.70;;;;;;;;;;6573202;28;20243;-90
2022/11/16 15:51:02;;;;;;;12.70;8.70;;;;;;;;;;6574697;28;20164;-90
2022/11/16 15:54:13;;;;;;;20.93;13.10;;;;;;;;;;6572229;28;20204;-89
2022/11/16 15:57:23;;;;;;;12.97;8.73;;;;;;;;;;6572683;28;20243;-90
2022/11/16 16:00:35;;;;;;;8.70;6.93;;;;;;;;;;6573902;28;20165;-90
2022/11/16 16:03:52;;;;;;;11.20;7.47;;;;;;;;;;6573694;28;20216;-89
2022/11/16 16:07:03;;;;;;;8.83;7.03;;;;;;;;;;6573794;28;20211;-89
2022/11/16 16:10:16;;;;;;;7.43;5.50;;;;;;;;;;6555886;28;20576;-88
2022/11/16 16:13:41;;;;;;;8.03;5.47;;;;;;;;;;6574275;28;20260;-88
2022/11/16 16:16:56;;;;;;;12.70;6.37;;;;;;;;;;6573201;28;20223;-88
2022/11/16 16:20:18;;;;;;;13.20;9.03;;;;;;;;;;6555882;28;20180;-88
2022/11/16 16:23:54;;;;;;;17.13;11.30;;;;;;;;;;6545338;28;20653;-89
2022/11/16 16:27:15;;;;;;;12.47;9.87;;;;;;;;;;6562364;28;20189;-90
2022/11/16 16:30:26;;;;;;;12.13;8.07;;;;;;;;;;6546847;28;20193;-89
2022/11/16 16:33:37;;;;;;;12.37;8.17;;;;;;;;;;6547029;28;20578;-89
2022/11/16 16:36:48;;;;;;;22.83;13.67;;;;;;;;;;6562190;28;20173;-90
2022/11/16 16:39:59;;;;;;;21.03;10.37;;;;;;;;;;6547384;28;20178;-89
2022/11/16 16:43:09;;;;;;;12.83;7.37;;;;;;;;;;6568027;28;20208;-90
2022/11/16 16:46:20;;;;;;;15.27;8.17;;;;;;;;;;6571110;28;20192;-90
2022/11/16 16:49:30;;;;;;;19.90;10.97;;;;;;;;;;6571495;28;20220;-90
2022/11/16 16:52:41;;;;;;;11.53;7.40;;;;;;;;;;6572668;28;20200;-89
2022/11/16 16:55:51;;;;;;;18.10;10.50;;;;;;;;;;6572546;28;20180;-88
2022/11/16 16:59:01;;;;;;;19.27;9.57;;;;;;;;;;6571272;28;20169;-89
2022/11/16 17:02:12;;;;;;;15.83;9.33;;;;;;;;;;6573103;28;20228;-89
2022/11/16 17:05:22;;;;;;;21.17;13.27;;;;;;;;;;6572404;28;20259;-89
2022/11/16 17:08:36;;;;;;;24.53;13.53;;;;;;;;;;6572034;28;20169;-91
2022/11/16 17:11:48;;;;;;;20.20;12.33;;;;;;;;;;6560711;28;20640;-94
2022/11/16 17:14:58;;;;;;;17.67;12.13;;;;;;;;;;6529591;28;20178;-94
2022/11/16 17:18:08;;;;;;;20.00;13.10;;;;;;;;;;6544790;28;20189;-95
2022/11/16 17:21:18;;;;;;;18.57;11.70;;;;;;;;;;6546050;28;20186;-95
2022/11/16 17:24:29;;;;;;;14.77;10.27;;;;;;;;;;6552247;28;20268;-94
2022/11/16 17:27:39;;;;;;;15.43;9.97;;;;;;;;;;6554663;28;20177;-95
2022/11/16 17:30:51;;;;;;;12.33;8.93;;;;;;;;;;6554760;28;20181;-94
2022/11/16 17:34:01;;;;;;;16.60;12.63;;;;;;;;;;6572006;28;20180;-95
2022/11/16 17:37:12;;;;;;;12.70;9.23;;;;;;;;;;6571690;28;20192;-94
2022/11/16 17:40:23;;;;;;;11.13;8.37;;;;;;;;;;6537103;28;20189;-94
2022/11/16 17:43:33;;;;;;;11.57;9.10;;;;;;;;;;6553306;28;20686;-94
2022/11/16 17:46:43;;;;;;;10.20;7.37;;;;;;;;;;6554312;28;20192;-95
2022/11/16 17:49:54;;;;;;;11.30;8.20;;;;;;;;;;6571869;28;20177;-95
2022/11/16 17:53:05;;;;;;;11.70;8.60;;;;;;;;;;6552937;28;20272;-95
2022/11/16 17:56:20;;;;;;;10.23;7.23;;;;;;;;;;6553314;28;20183;-95
2022/11/16 17:59:30;;;;;;;12.10;8.47;;;;;;;;;;6552823;28;20578;-94
2022/11/16 18:02:40;;;;;;;14.10;8.60;;;;;;;;;;6553349;28;20205;-95
2022/11/16 18:05:52;;;;;;;39.67;19.53;;;;;;;;;;6573508;28;20216;-94
2022/11/16 18:09:02;;;;;;;19.53;13.00;;;;;;;;;;6579185;28;20546;-94
2022/11/16 18:12:14;;;;;;;12.83;8.97;;;;;;;;;;6578891;28;20188;-94
2022/11/16 18:15:24;;;;;;;15.30;10.93;;;;;;;;;;6595692;28;20536;-94
2022/11/16 18:18:35;;;;;;;17.97;10.80;;;;;;;;;;6578750;28;20184;-93
2022/11/16 18:21:47;;;;;;;16.30;10.87;;;;;;;;;;6570283;28;20177;-94
2022/11/16 18:24:58;;;;;;;11.33;7.77;;;;;;;;;;6581932;28;20241;-91
2022/11/16 18:28:08;;;;;;;13.00;9.13;;;;;;;;;;6556142;28;20181;-92
2022/11/16 18:31:19;;;;;;;12.90;8.73;;;;;;;;;;6552471;28;20231;-91
2022/11/16 18:34:30;;;;;;;10.03;7.37;;;;;;;;;;6552785;28;20181;-91
2022/11/16 18:37:40;;;;;;;13.77;9.17;;;;;;;;;;6569208;28;20615;-90
2022/11/16 18:41:01;;;;;;;13.00;9.07;;;;;;;;;;6535810;28;20211;-91
2022/11/16 18:44:12;;;;;;;16.27;10.33;;;;;;;;;;6551724;28;20663;-91
2022/11/16 18:47:23;;;;;;;10.77;8.43;;;;;;;;;;6569236;28;20173;-91
2022/11/16 18:50:33;;;;;;;21.43;14.43;;;;;;;;;;6570207;28;20639;-91
2022/11/16 18:53:44;;;;;;;9.93;8.30;;;;;;;;;;6562509;28;20181;-91
2022/11/16 18:56:54;;;;;;;9.30;7.50;;;;;;;;;;6574802;28;20173;-91
2022/11/16 19:00:05;;;;;;;7.93;6.83;;;;;;;;;;6556919;28;20184;-92
2022/11/16 19:03:15;;;;;;;11.63;7.23;;;;;;;;;;6573521;28;20212;-92
2022/11/16 19:06:27;;;;;;;9.67;7.13;;;;;;;;;;6556439;28;20651;-92
2022/11/16 19:09:37;;;;;;;10.43;7.60;;;;;;;;;;6573105;28;20197;-91
2022/11/16 19:12:47;;;;;;;11.23;7.17;;;;;;;;;;6556916;28;20169;-92
2022/11/16 19:15:58;;;;;;;10.97;7.87;;;;;;;;;;6556380;28;20236;-91
2022/11/16 19:19:08;;;;;;;10.50;8.07;;;;;;;;;;6574021;28;20184;-91
2022/11/16 19:22:19;;;;;;;9.47;7.13;;;;;;;;;;6573564;28;20608;-91
2022/11/16 19:25:29;;;;;;;6.73;4.80;;;;;;;;;;6573389;28;20217;-91
2022/11/16 19:28:41;;;;;;;7.03;6.10;;;;;;;;;;6537862;28;20189;-92
2022/11/16 19:31:51;;;;;;;10.67;7.57;;;;;;;;;;6573876;28;20173;-91
2022/11/16 19:35:03;;;;;;;31.57;16.23;;;;;;;;;;6556087;28;20181;-91
2022/11/16 19:38:13;;;;;;;42.27;23.30;;;;;;;;;;6573667;28;20184;-92
2022/11/16 19:41:24;;;;;;;28.73;17.77;;;;;;;;;;6539793;28;20631;-92
2022/11/16 19:44:34;;;;;;;13.10;9.37;;;;;;;;;;6570268;28;20315;-91
2022/11/16 19:47:45;;;;;;;17.17;12.43;;;;;;;;;;6571976;28;20535;-91
2022/11/16 19:50:57;;;;;;;12.77;9.90;;;;;;;;;;6572283;28;20223;-92
2022/11/16 19:54:08;;;;;;;10.10;7.17;;;;;;;;;;6573410;28;20180;-91
2022/11/16 19:57:19;;;;;;;8.40;6.97;;;;;;;;;;6572315;28;20190;-91